createdAt,value
2023-05-05T00:01:47.367Z,55.28
2023-05-05T00:04:14.238Z,55.32
2023-05-05T00:06:40.926Z,55.45
2023-05-05T00:09:07.536Z,55.54
2023-05-05T00:11:33.999Z,55.63
2023-05-05T00:14:00.624Z,55.65
2023-05-05T00:16:27.453Z,55.77
2023-05-05T00:18:54.122Z,55.89
2023-05-05T00:21:20.717Z,56.04
2023-05-05T00:23:47.190Z,56.04
2023-05-05T00:26:14.107Z,56.30
2023-05-05T00:28:41.093Z,57.29
2023-05-05T00:31:07.841Z,58.23
2023-05-05T00:33:34.539Z,58.24
2023-05-05T00:36:01.289Z,57.78
2023-05-05T00:38:28.946Z,57.48
2023-05-05T00:40:55.906Z,57.12
2023-05-05T00:43:22.390Z,56.76
2023-05-05T00:45:48.914Z,56.85
2023-05-05T00:48:17.130Z,56.77
2023-05-05T00:50:44.997Z,56.64
2023-05-05T00:53:11.975Z,56.68
2023-05-05T00:55:38.565Z,56.71
2023-05-05T00:58:05.173Z,56.78
2023-05-05T01:00:31.753Z,56.80
2023-05-05T01:02:59.370Z,56.93
2023-05-05T01:05:28.109Z,56.95
2023-05-05T01:08:14.849Z,57.31
2023-05-05T01:10:46.165Z,57.45
2023-05-05T01:13:44.247Z,57.48
2023-05-05T01:16:18.104Z,57.50
2023-05-05T01:19:05.226Z,57.74
2023-05-05T01:21:50.498Z,57.92
2023-05-05T01:24:45.647Z,57.95
2023-05-05T01:27:49.248Z,58.01
2023-05-05T01:30:34.315Z,58.08
2023-05-05T01:33:06.754Z,59.09
2023-05-05T01:35:36.737Z,59.74
2023-05-05T01:38:07.247Z,59.29
2023-05-05T01:40:39.369Z,58.69
2023-05-05T01:43:06.968Z,58.52
2023-05-05T01:45:35.820Z,58.39
2023-05-05T01:48:02.564Z,58.38
2023-05-05T01:50:29.260Z,58.29
2023-05-05T01:52:58.023Z,58.38
2023-05-05T01:55:25.687Z,58.37
2023-05-05T01:57:53.320Z,58.30
2023-05-05T02:00:19.990Z,58.53
2023-05-05T02:02:47.740Z,58.59
2023-05-05T02:05:14.329Z,58.70
2023-05-05T02:07:41.151Z,58.76
2023-05-05T02:10:10.456Z,58.75
2023-05-05T02:12:37.240Z,58.68
2023-05-05T02:15:05.047Z,59.98
2023-05-05T02:17:31.686Z,60.68
2023-05-05T02:19:59.056Z,60.07
2023-05-05T02:22:25.782Z,59.87
2023-05-05T02:24:52.465Z,59.82
2023-05-05T02:27:19.163Z,59.77
2023-05-05T02:29:53.394Z,59.76
2023-05-05T02:32:32.762Z,59.84
2023-05-05T02:35:04.304Z,59.86
2023-05-05T02:37:31.088Z,59.85
2023-05-05T02:40:06.263Z,60.20
2023-05-05T02:42:38.982Z,60.08
2023-05-05T02:45:12.276Z,60.83
2023-05-05T02:47:40.722Z,61.43
2023-05-05T02:50:08.378Z,61.29
2023-05-05T02:52:35.614Z,60.48
2023-05-05T02:55:03.240Z,60.07
2023-05-05T02:57:37.928Z,59.88
2023-05-05T03:00:14.078Z,59.98
2023-05-05T03:02:50.194Z,59.82
2023-05-05T03:05:19.932Z,59.97
2023-05-05T03:08:03.620Z,59.97
2023-05-05T03:10:35.168Z,60.15
2023-05-05T03:13:02.733Z,60.13
2023-05-05T03:15:49.538Z,60.28
2023-05-05T03:18:18.606Z,61.17
2023-05-05T03:20:48.264Z,61.77
2023-05-05T03:23:18.390Z,61.23
2023-05-05T03:25:47.091Z,60.97
2023-05-05T03:28:20.155Z,60.91
2023-05-05T03:30:46.630Z,60.79
2023-05-05T03:33:14.067Z,60.84
2023-05-05T03:35:40.773Z,60.72
2023-05-05T03:38:08.421Z,60.65
2023-05-05T03:40:43.569Z,60.68
2023-05-05T03:43:11.942Z,60.89
2023-05-05T03:45:38.724Z,60.86
2023-05-05T03:48:06.639Z,61.00
2023-05-05T03:50:33.268Z,62.00
2023-05-05T03:52:59.903Z,62.60
2023-05-05T03:55:26.853Z,62.32
2023-05-05T03:57:53.370Z,62.07
2023-05-05T04:00:20.042Z,61.87
2023-05-05T04:02:46.688Z,61.69
2023-05-05T04:05:13.954Z,61.53
2023-05-05T04:07:40.563Z,61.63
2023-05-05T04:10:08.756Z,61.88
2023-05-05T04:12:35.823Z,61.64
2023-05-05T04:15:02.622Z,61.78
2023-05-05T04:17:29.208Z,62.64
2023-05-05T04:19:55.778Z,63.01
2023-05-05T04:22:22.447Z,62.82
2023-05-05T04:24:49.148Z,62.71
2023-05-05T04:27:15.932Z,62.86
2023-05-05T04:29:42.586Z,62.69
2023-05-05T04:32:09.594Z,62.92
2023-05-05T04:34:36.218Z,62.98
2023-05-05T04:37:02.930Z,63.12
2023-05-05T04:39:29.985Z,63.35
2023-05-05T04:41:56.793Z,63.85
2023-05-05T04:44:23.973Z,64.52
2023-05-05T04:46:50.948Z,64.01
2023-05-05T04:49:17.487Z,64.08
2023-05-05T04:51:44.117Z,63.89
2023-05-05T04:54:10.672Z,63.60
2023-05-05T04:56:37.228Z,63.52
2023-05-05T04:59:03.788Z,63.28
2023-05-05T05:01:30.425Z,63.18
2023-05-05T05:03:57.039Z,63.26
2023-05-05T05:06:23.910Z,63.76
2023-05-05T05:08:50.329Z,64.14
2023-05-05T05:11:16.852Z,64.04
2023-05-05T05:13:43.441Z,63.64
2023-05-05T05:16:09.975Z,63.37
2023-05-05T05:18:36.463Z,63.37
2023-05-05T05:21:03.501Z,63.13
2023-05-05T05:23:30.093Z,63.12
2023-05-05T05:25:57.159Z,63.05
2023-05-05T05:28:23.820Z,62.76
2023-05-05T05:30:53.947Z,62.99
2023-05-05T05:33:20.587Z,63.75
2023-05-05T05:35:47.634Z,64.03
2023-05-05T05:38:14.530Z,63.76
2023-05-05T05:40:41.192Z,63.60
2023-05-05T05:43:07.652Z,63.26
2023-05-05T05:45:34.625Z,62.98
2023-05-05T05:48:01.789Z,62.79
2023-05-05T05:50:28.773Z,62.63
2023-05-05T05:52:55.872Z,61.96
2023-05-05T05:55:22.623Z,61.88
2023-05-05T05:57:49.170Z,61.56
2023-05-05T06:00:16.196Z,61.50
2023-05-05T06:02:45.162Z,61.42
2023-05-05T06:05:14.004Z,61.26
2023-05-05T06:07:41.261Z,61.04
2023-05-05T06:10:25.819Z,60.03
2023-05-05T06:12:54.097Z,59.26
2023-05-05T06:15:20.673Z,58.51
2023-05-05T06:17:47.354Z,56.88
2023-05-05T06:20:13.955Z,57.43
2023-05-05T06:22:40.568Z,57.50
2023-05-05T06:25:07.609Z,56.78
2023-05-05T06:27:34.508Z,53.93
2023-05-05T06:30:01.164Z,55.00
2023-05-05T06:32:27.685Z,55.60
2023-05-05T06:34:54.255Z,55.51
2023-05-05T06:37:20.769Z,54.64
2023-05-05T06:39:47.289Z,54.00
2023-05-05T06:42:13.754Z,53.58
2023-05-05T06:44:40.305Z,52.41
2023-05-05T06:47:06.921Z,52.99
2023-05-05T06:49:33.641Z,52.13
2023-05-05T06:52:00.183Z,51.31
2023-05-05T06:54:26.838Z,49.77
2023-05-05T06:56:53.398Z,47.08
2023-05-05T06:59:19.897Z,50.36
2023-05-05T07:01:46.391Z,50.65
2023-05-05T07:04:13.082Z,50.81
2023-05-05T07:06:39.753Z,50.45
2023-05-05T07:09:06.725Z,50.17
2023-05-05T07:11:33.304Z,49.60
2023-05-05T07:13:59.844Z,50.59
2023-05-05T07:16:27.294Z,51.34
2023-05-05T07:18:53.927Z,51.44
2023-05-05T07:21:20.406Z,51.58
2023-05-05T07:23:47.818Z,51.65
2023-05-05T07:26:15.180Z,51.78
2023-05-05T07:28:43.143Z,52.15
2023-05-05T07:31:09.747Z,52.68
2023-05-05T07:33:36.230Z,52.82
2023-05-05T07:36:02.957Z,52.90
2023-05-05T07:38:29.505Z,52.82
2023-05-05T07:40:55.987Z,52.81
2023-05-05T07:43:22.475Z,53.17
2023-05-05T07:45:48.984Z,53.10
2023-05-05T07:48:15.506Z,53.28
2023-05-05T07:50:42.220Z,53.35
2023-05-05T07:53:14.438Z,53.08
2023-05-05T07:55:41.880Z,52.58
2023-05-05T07:58:08.638Z,51.68
2023-05-05T08:00:35.632Z,51.29
2023-05-05T08:03:02.275Z,51.14
2023-05-05T08:05:28.876Z,51.11
2023-05-05T08:07:55.477Z,51.37
2023-05-05T08:10:22.421Z,51.55
2023-05-05T08:12:49.169Z,51.76
2023-05-05T08:15:15.855Z,52.24
2023-05-05T08:17:50.633Z,52.47
2023-05-05T08:20:17.933Z,52.74
2023-05-05T08:22:44.714Z,52.87
2023-05-05T08:25:11.563Z,53.10
2023-05-05T08:27:39.203Z,53.18
2023-05-05T08:30:06.339Z,53.44
2023-05-05T08:32:33.037Z,53.73
2023-05-05T08:35:01.494Z,53.97
2023-05-05T08:37:28.010Z,54.30
2023-05-05T08:39:54.534Z,54.27
2023-05-05T08:42:35.542Z,54.49
2023-05-05T08:45:04.788Z,54.49
2023-05-05T08:47:32.300Z,54.42
2023-05-05T08:49:58.956Z,53.67
2023-05-05T08:52:25.469Z,52.52
2023-05-05T08:54:57.781Z,51.31
2023-05-05T08:57:27.997Z,50.23
2023-05-05T08:59:54.592Z,49.00
2023-05-05T09:02:23.988Z,48.09
2023-05-05T09:04:51.694Z,47.19
2023-05-05T09:07:18.193Z,47.07
2023-05-05T09:09:44.780Z,47.11
2023-05-05T09:12:11.355Z,47.81
2023-05-05T09:14:37.910Z,47.22
2023-05-05T09:17:04.482Z,45.82
2023-05-05T09:19:31.194Z,44.68
2023-05-05T09:21:57.800Z,42.77
2023-05-05T09:24:24.587Z,42.85
2023-05-05T09:26:51.238Z,42.15
2023-05-05T09:29:21.347Z,42.60
2023-05-05T09:32:09.119Z,43.52
2023-05-05T09:34:36.203Z,43.50
2023-05-05T09:37:03.270Z,43.57
2023-05-05T09:39:29.767Z,44.34
2023-05-05T09:41:56.329Z,44.07
2023-05-05T09:44:36.772Z,43.51
2023-05-05T09:47:07.245Z,43.18
2023-05-05T09:49:39.127Z,43.31
2023-05-05T09:52:15.751Z,42.58
2023-05-05T09:54:43.038Z,41.64
2023-05-05T09:57:09.705Z,41.74
2023-05-05T09:59:36.547Z,40.62
2023-05-05T10:02:13.008Z,41.12
2023-05-05T10:04:39.586Z,40.56
2023-05-05T10:07:06.315Z,41.25
2023-05-05T10:09:33.006Z,40.69
2023-05-05T10:11:59.931Z,39.25
2023-05-05T10:14:26.899Z,38.78
2023-05-05T10:16:54.707Z,37.97
2023-05-05T10:19:22.745Z,39.44
2023-05-05T10:21:50.068Z,38.79
2023-05-05T10:24:39.079Z,39.32
2023-05-05T10:27:15.393Z,39.22
2023-05-05T10:29:59.717Z,38.74
2023-05-05T10:35:04.089Z,38.33
2023-05-05T10:37:30.689Z,37.99
2023-05-05T10:40:00.265Z,37.95
2023-05-05T10:42:27.713Z,37.58
2023-05-05T10:44:54.561Z,37.83
2023-05-05T10:47:22.293Z,38.27
2023-05-05T10:50:05.614Z,39.05
2023-05-05T10:52:38.535Z,39.50
2023-05-05T10:55:17.700Z,40.36
2023-05-05T10:57:46.437Z,40.75
2023-05-05T11:00:55.981Z,41.06
2023-05-05T11:03:25.193Z,41.36
2023-05-05T11:06:26.009Z,41.63
2023-05-05T11:08:55.966Z,42.12
2023-05-05T11:11:25.401Z,42.02
2023-05-05T11:13:53.998Z,41.96
2023-05-05T11:16:50.582Z,42.05
2023-05-05T11:19:46.952Z,42.51
2023-05-05T11:22:16.967Z,42.31
2023-05-05T11:24:45.693Z,42.24
2023-05-05T11:27:15.001Z,42.06
2023-05-05T11:30:08.003Z,42.04
2023-05-05T11:32:37.949Z,42.17
2023-05-05T11:35:07.182Z,42.18
2023-05-05T11:37:36.925Z,42.03
2023-05-05T11:40:21.230Z,42.26
2023-05-05T11:42:50.437Z,42.42
2023-05-05T11:45:23.758Z,41.96
2023-05-05T11:47:53.306Z,41.77
2023-05-05T11:50:23.080Z,42.04
2023-05-05T11:52:52.407Z,42.32
2023-05-05T12:02:55.635Z,42.79
2023-05-05T12:05:21.633Z,42.10
2023-05-05T12:07:47.643Z,41.26
2023-05-05T12:10:15.767Z,40.75
2023-05-05T12:12:41.723Z,40.65
2023-05-05T12:15:08.709Z,40.69
2023-05-05T12:17:39.688Z,40.98
2023-05-05T12:20:07.070Z,40.85
2023-05-05T12:22:33.205Z,40.46
2023-05-05T12:25:06.848Z,40.16
2023-05-05T12:27:32.775Z,40.20
2023-05-05T12:30:13.516Z,40.66
2023-05-05T12:32:39.532Z,40.99
2023-05-05T12:35:07.235Z,40.93
2023-05-05T12:37:33.033Z,40.77
2023-05-05T12:39:58.890Z,40.96
2023-05-05T12:42:24.752Z,41.20
2023-05-05T12:44:50.722Z,41.05
2023-05-05T12:47:33.206Z,40.54
2023-05-05T12:49:59.770Z,40.67
2023-05-05T12:52:44.547Z,40.50
2023-05-05T12:55:10.841Z,40.44
2023-05-05T12:57:37.765Z,40.21
2023-05-05T13:00:14.794Z,39.84
2023-05-05T13:02:40.654Z,39.57
2023-05-05T13:05:08.198Z,39.49
2023-05-05T13:07:34.351Z,39.59
2023-05-05T13:10:08.980Z,39.73
2023-05-05T13:12:34.850Z,39.88
2023-05-05T13:15:00.597Z,40.21
2023-05-05T13:17:26.379Z,40.34
2023-05-05T13:19:52.294Z,40.77
2023-05-05T13:22:18.152Z,40.93
2023-05-05T13:24:52.133Z,41.05
2023-05-05T13:27:19.351Z,41.20
2023-05-05T13:29:45.578Z,41.34
2023-05-05T13:32:11.317Z,41.53
2023-05-05T13:34:38.428Z,41.43
2023-05-05T13:37:04.268Z,41.18
2023-05-05T13:39:30.198Z,41.23
2023-05-05T13:41:56.016Z,40.96
2023-05-05T13:44:22.050Z,40.93
2023-05-05T13:46:48.009Z,41.01
2023-05-05T13:49:13.938Z,41.09
2023-05-05T13:51:39.876Z,41.05
2023-05-05T13:54:06.339Z,40.87
2023-05-05T13:56:32.985Z,40.78
2023-05-05T13:58:58.892Z,40.76
2023-05-05T14:01:25.211Z,40.52
2023-05-05T14:03:51.211Z,40.53
2023-05-05T14:06:17.423Z,40.30
2023-05-05T14:08:43.214Z,40.17
2023-05-05T14:11:08.983Z,40.01
2023-05-05T14:13:34.935Z,40.10
2023-05-05T14:16:01.043Z,39.60
2023-05-05T14:18:27.700Z,39.48
2023-05-05T14:20:54.017Z,39.48
2023-05-05T14:23:19.915Z,39.85
2023-05-05T14:25:45.967Z,39.77
2023-05-05T14:28:11.921Z,39.58
2023-05-05T14:30:39.074Z,39.62
2023-05-05T14:33:04.972Z,39.81
2023-05-05T14:35:31.132Z,39.72
2023-05-05T14:37:57.097Z,39.47
2023-05-05T14:40:22.962Z,39.49
2023-05-05T14:42:50.484Z,39.76
2023-05-05T14:45:17.138Z,39.75
2023-05-05T14:47:43.110Z,39.70
2023-05-05T14:50:09.753Z,39.50
2023-05-05T14:52:38.524Z,39.34
2023-05-05T14:55:05.319Z,39.45
2023-05-05T14:57:31.456Z,39.63
2023-05-05T14:59:57.468Z,39.80
2023-05-05T15:02:23.494Z,39.59
2023-05-05T15:04:49.924Z,39.82
2023-05-05T15:07:16.165Z,39.91
2023-05-05T15:09:42.068Z,40.03
2023-05-05T15:12:07.882Z,39.94
2023-05-05T15:14:35.883Z,39.99
2023-05-05T15:17:02.209Z,40.01
2023-05-05T15:19:28.940Z,39.86
2023-05-05T15:21:54.949Z,39.96
2023-05-05T15:24:21.340Z,40.22
2023-05-05T15:26:47.226Z,40.34
2023-05-05T15:29:13.147Z,40.62
2023-05-05T15:31:38.968Z,40.81
2023-05-05T15:34:05.524Z,40.87
2023-05-05T15:36:31.618Z,41.00
2023-05-05T15:38:57.412Z,41.13
2023-05-05T15:41:26.535Z,41.25
2023-05-05T15:43:52.439Z,41.41
2023-05-05T15:46:18.393Z,41.49
2023-05-05T15:48:44.198Z,41.75
2023-05-05T15:51:12.087Z,42.02
2023-05-05T15:53:38.078Z,41.81
2023-05-05T15:56:04.223Z,41.98
2023-05-05T15:58:30.443Z,41.90
2023-05-05T16:00:56.311Z,41.95
2023-05-05T16:03:22.195Z,42.46
2023-05-05T16:05:48.158Z,42.66
2023-05-05T16:08:13.973Z,42.88
2023-05-05T16:10:40.256Z,42.85
2023-05-05T16:13:06.135Z,43.35
2023-05-05T16:15:32.315Z,43.63
2023-05-05T16:17:58.221Z,43.86
2023-05-05T16:20:24.037Z,43.97
2023-05-05T16:22:50.170Z,44.10
2023-05-05T16:25:17.780Z,44.40
2023-05-05T16:27:43.704Z,44.63
2023-05-05T16:30:12.245Z,44.92
2023-05-05T16:32:38.130Z,44.90
2023-05-05T16:35:06.407Z,45.29
2023-05-05T16:37:32.540Z,45.57
2023-05-05T16:39:59.909Z,45.77
2023-05-05T16:42:25.738Z,45.87
2023-05-05T16:44:51.605Z,46.04
2023-05-05T16:47:17.472Z,46.17
2023-05-05T16:52:09.522Z,46.54
2023-05-05T16:54:35.325Z,46.88
2023-05-05T16:57:03.275Z,47.10
2023-05-05T16:59:31.406Z,47.38
2023-05-05T17:01:57.592Z,47.60
2023-05-05T17:04:23.524Z,47.84
2023-05-05T17:06:50.201Z,48.52
2023-05-05T17:09:15.985Z,48.81
2023-05-05T17:11:41.918Z,49.16
2023-05-05T17:14:07.660Z,49.44
2023-05-05T17:16:33.924Z,49.71
2023-05-05T17:18:59.998Z,50.22
2023-05-05T17:21:26.219Z,50.84
2023-05-05T17:23:52.035Z,51.10
2023-05-05T17:26:17.952Z,51.55
2023-05-05T17:28:43.821Z,51.58
2023-05-05T17:31:09.604Z,51.64
2023-05-05T17:33:35.451Z,51.88
2023-05-05T17:36:01.271Z,52.18
2023-05-05T17:38:27.613Z,52.62
2023-05-05T17:40:53.513Z,52.63
2023-05-05T17:43:19.358Z,52.97
2023-05-05T17:45:46.092Z,53.48
2023-05-05T17:48:11.995Z,53.67
2023-05-05T17:50:37.887Z,54.07
2023-05-05T17:53:04.338Z,54.10
2023-05-05T17:55:30.256Z,54.42
2023-05-05T17:57:56.770Z,54.81
2023-05-05T18:00:22.669Z,54.94
2023-05-05T18:02:48.718Z,55.22
2023-05-05T18:05:14.651Z,55.74
2023-05-05T18:07:40.680Z,55.83
2023-05-05T18:10:07.734Z,55.80
2023-05-05T18:12:33.669Z,56.04
2023-05-05T18:15:00.982Z,56.10
2023-05-05T18:17:26.827Z,56.81
2023-05-05T18:19:52.622Z,57.54
2023-05-05T18:22:18.446Z,57.08
2023-05-05T18:24:45.811Z,56.98
2023-05-05T18:27:11.675Z,56.64
2023-05-05T18:29:37.691Z,56.42
2023-05-05T18:32:05.549Z,56.22
2023-05-05T18:34:32.170Z,56.24
2023-05-05T18:36:58.135Z,56.03
2023-05-05T18:39:24.016Z,55.77
2023-05-05T18:41:49.924Z,55.74
2023-05-05T18:44:15.761Z,55.85
2023-05-05T18:46:42.693Z,55.76
2023-05-05T18:49:08.759Z,55.60
2023-05-05T18:51:34.637Z,55.34
2023-05-05T18:54:00.682Z,55.36
2023-05-05T18:56:26.993Z,55.32
2023-05-05T18:58:53.087Z,55.27
2023-05-05T19:01:19.741Z,55.23
2023-05-05T19:03:47.643Z,55.37
2023-05-05T19:06:13.700Z,55.38
2023-05-05T19:08:39.727Z,55.30
2023-05-05T19:11:05.598Z,55.32
2023-05-05T19:13:31.519Z,55.32
2023-05-05T19:15:57.364Z,55.36
2023-05-05T19:18:23.769Z,55.57
2023-05-05T19:20:49.670Z,55.76
2023-05-05T19:23:15.484Z,55.82
2023-05-05T19:25:42.140Z,55.73
2023-05-05T19:28:09.206Z,55.57
2023-05-05T19:30:35.423Z,55.65
2023-05-05T19:33:01.469Z,55.32
2023-05-05T19:35:29.105Z,55.26
2023-05-05T19:37:55.269Z,55.11
2023-05-05T19:40:21.144Z,54.73
2023-05-05T19:42:47.119Z,54.53
2023-05-05T19:45:12.962Z,54.36
2023-05-05T19:47:38.812Z,54.36
2023-05-05T19:50:05.181Z,54.26
2023-05-05T19:52:31.172Z,54.19
2023-05-05T19:54:57.924Z,54.14
2023-05-05T19:57:23.841Z,54.23
2023-05-05T19:59:49.667Z,54.53
2023-05-05T20:02:16.402Z,54.85
2023-05-05T20:04:43.255Z,54.94
2023-05-05T20:07:09.133Z,55.48
2023-05-05T20:09:37.065Z,61.55
2023-05-05T20:12:03.443Z,61.06
2023-05-05T20:14:29.193Z,58.66
2023-05-05T20:16:55.105Z,58.00
2023-05-05T20:19:21.025Z,58.49
2023-05-05T20:21:46.860Z,57.88
2023-05-05T20:24:12.727Z,57.98
2023-05-05T20:26:38.474Z,58.03
2023-05-05T20:29:04.255Z,58.81
2023-05-05T20:31:30.473Z,59.93
2023-05-05T20:33:56.458Z,60.50
2023-05-05T20:36:25.591Z,61.65
2023-05-05T20:38:52.015Z,61.93
2023-05-05T20:41:18.007Z,65.10
2023-05-05T20:43:43.796Z,66.14
2023-05-05T20:46:12.831Z,67.36
2023-05-05T20:48:42.470Z,68.12
2023-05-05T20:51:09.072Z,67.71
2023-05-05T20:53:35.032Z,67.42
2023-05-05T20:56:00.909Z,68.05
2023-05-05T20:58:26.781Z,69.05
2023-05-05T21:00:52.712Z,69.01
2023-05-05T21:03:18.852Z,68.85
2023-05-05T21:05:44.731Z,68.55
2023-05-05T21:08:10.661Z,70.15
2023-05-05T21:10:36.480Z,69.51
2023-05-05T21:13:02.287Z,71.26
2023-05-05T21:15:28.402Z,70.00
2023-05-05T21:17:55.019Z,70.15
2023-05-05T21:20:20.931Z,70.83
2023-05-05T21:22:46.778Z,71.38
2023-05-05T21:25:17.877Z,71.60
2023-05-05T21:27:43.752Z,72.52
2023-05-05T21:30:11.155Z,72.40
2023-05-05T21:32:38.448Z,72.25
2023-05-05T21:35:05.652Z,72.51
2023-05-05T21:37:31.538Z,72.14
2023-05-05T21:39:57.384Z,71.38
2023-05-05T21:42:23.362Z,70.33
2023-05-05T21:44:49.155Z,70.27
2023-05-05T21:47:15.771Z,70.13
2023-05-05T21:49:41.649Z,70.92
2023-05-05T21:52:07.661Z,70.34
2023-05-05T21:54:33.590Z,69.62
2023-05-05T21:57:00.002Z,68.91
2023-05-05T21:59:25.962Z,68.34
2023-05-05T22:01:51.856Z,68.89
2023-05-05T22:04:17.815Z,68.52
2023-05-05T22:06:43.621Z,68.16
2023-05-05T22:09:09.570Z,69.18
2023-05-05T22:11:35.369Z,69.69
2023-05-05T22:14:01.265Z,70.43
2023-05-05T22:16:27.128Z,71.12
2023-05-05T22:18:52.927Z,69.52
2023-05-05T22:21:20.576Z,69.81
2023-05-05T22:23:46.689Z,69.60
2023-05-05T22:26:12.519Z,69.98
2023-05-05T22:28:38.280Z,69.96
2023-05-05T22:31:04.111Z,71.53
2023-05-05T22:33:30.067Z,72.41
2023-05-05T22:35:56.225Z,72.75
2023-05-05T22:38:22.105Z,71.16
2023-05-05T22:40:48.651Z,70.49
2023-05-05T22:43:14.558Z,69.71
2023-05-05T22:45:40.592Z,70.21
2023-05-05T22:48:06.555Z,70.70
2023-05-05T22:50:32.548Z,70.74
2023-05-05T22:52:58.374Z,70.03
2023-05-05T22:55:24.195Z,69.44
2023-05-05T22:57:51.862Z,69.20
2023-05-05T23:00:17.886Z,69.95
2023-05-05T23:02:43.758Z,69.39
2023-05-05T23:05:09.889Z,69.39
2023-05-05T23:07:36.134Z,69.73
2023-05-05T23:10:03.104Z,70.56
2023-05-05T23:12:29.189Z,70.21
2023-05-05T23:14:55.343Z,69.86
2023-05-05T23:17:21.224Z,69.94
2023-05-05T23:19:47.642Z,70.58
2023-05-05T23:22:13.585Z,69.74
2023-05-05T23:24:39.556Z,69.59
2023-05-05T23:27:05.318Z,69.74
2023-05-05T23:29:31.273Z,70.19
2023-05-05T23:31:57.420Z,69.34
2023-05-05T23:34:23.564Z,69.18
2023-05-05T23:36:49.450Z,68.80
2023-05-05T23:39:15.946Z,68.63
2023-05-05T23:41:41.819Z,68.89
2023-05-05T23:44:07.710Z,68.90
2023-05-05T23:46:33.629Z,69.19
2023-05-05T23:48:59.415Z,69.83
2023-05-05T23:51:26.640Z,70.40
2023-05-05T23:53:52.748Z,70.21
2023-05-05T23:56:19.246Z,69.83
2023-05-05T23:58:45.313Z,69.65
